createdAt,value
2023-04-27T00:02:03.180Z,15.52
2023-04-27T00:04:30.486Z,15.13
2023-04-27T00:06:57.685Z,18.38
2023-04-27T00:09:24.547Z,18.02
2023-04-27T00:11:51.445Z,16.80
2023-04-27T00:14:18.420Z,16.17
2023-04-27T00:16:45.475Z,14.13
2023-04-27T00:19:13.981Z,20.00
2023-04-27T00:21:41.893Z,19.35
2023-04-27T00:24:08.882Z,20.80
2023-04-27T00:26:35.964Z,16.88
2023-04-27T00:29:03.100Z,15.80
2023-04-27T00:31:30.194Z,24.08
2023-04-27T00:33:57.251Z,20.05
2023-04-27T00:36:24.290Z,17.40
2023-04-27T00:38:51.200Z,16.27
2023-04-27T00:41:18.186Z,16.20
2023-04-27T00:43:46.582Z,20.63
2023-04-27T00:46:14.669Z,19.50
2023-04-27T00:48:42.802Z,23.02
2023-04-27T00:51:10.442Z,20.98
2023-04-27T00:53:38.232Z,21.73
2023-04-27T00:56:07.013Z,16.92
2023-04-27T00:58:33.993Z,20.70
2023-04-27T01:01:01.274Z,23.02
2023-04-27T01:03:28.314Z,22.88
2023-04-27T01:05:56.890Z,20.42
2023-04-27T01:08:24.621Z,20.77
2023-04-27T01:10:51.807Z,20.60
2023-04-27T01:13:19.007Z,19.85
2023-04-27T01:15:46.108Z,21.70
2023-04-27T01:18:12.986Z,19.83
2023-04-27T01:20:40.183Z,20.40
2023-04-27T01:23:14.269Z,27.98
2023-04-27T01:25:43.342Z,21.52
2023-04-27T01:28:10.332Z,27.35
2023-04-27T01:30:37.740Z,24.38
2023-04-27T01:33:04.730Z,24.67
2023-04-27T01:35:31.815Z,21.52
2023-04-27T01:38:00.384Z,20.10
2023-04-27T01:40:27.684Z,16.35
2023-04-27T01:42:54.678Z,17.33
2023-04-27T01:45:21.958Z,22.65
2023-04-27T01:47:52.087Z,20.77
2023-04-27T01:50:20.774Z,20.00
2023-04-27T01:52:47.711Z,18.88
2023-04-27T01:55:14.841Z,16.70
2023-04-27T01:57:42.353Z,21.42
2023-04-27T02:00:10.211Z,22.42
2023-04-27T02:02:51.288Z,26.25
2023-04-27T02:05:18.574Z,18.45
2023-04-27T02:07:46.574Z,17.60
2023-04-27T02:10:13.524Z,18.98
2023-04-27T02:12:40.636Z,25.67
2023-04-27T02:15:09.628Z,21.45
2023-04-27T02:17:36.765Z,22.83
2023-04-27T02:20:06.763Z,24.65
2023-04-27T02:22:34.037Z,22.77
2023-04-27T02:25:01.137Z,22.27
2023-04-27T02:27:28.125Z,21.98
2023-04-27T02:29:55.455Z,21.02
2023-04-27T02:32:23.465Z,19.85
2023-04-27T02:34:50.408Z,25.27
2023-04-27T02:37:18.826Z,19.80
2023-04-27T02:39:47.428Z,20.88
2023-04-27T02:42:14.726Z,22.08
2023-04-27T02:44:43.251Z,26.88
2023-04-27T02:47:11.051Z,25.80
2023-04-27T02:49:38.255Z,20.65
2023-04-27T02:52:05.451Z,25.60
2023-04-27T02:54:32.804Z,25.90
2023-04-27T02:56:59.944Z,27.88
2023-04-27T02:59:27.014Z,27.60
2023-04-27T03:01:54.363Z,29.45
2023-04-27T03:04:21.465Z,23.73
2023-04-27T03:06:49.035Z,22.13
2023-04-27T03:09:16.449Z,22.48
2023-04-27T03:11:43.656Z,23.45
2023-04-27T03:14:10.636Z,29.50
2023-04-27T03:16:37.870Z,26.08
2023-04-27T03:19:05.131Z,23.17
2023-04-27T03:21:32.191Z,30.48
2023-04-27T03:23:59.142Z,24.00
2023-04-27T03:26:26.461Z,23.67
2023-04-27T03:28:53.379Z,24.95
2023-04-27T03:31:20.612Z,24.13
2023-04-27T03:33:47.575Z,26.05
2023-04-27T03:36:15.468Z,29.00
2023-04-27T03:38:42.406Z,26.88
2023-04-27T03:41:09.639Z,28.13
2023-04-27T03:43:37.021Z,25.05
2023-04-27T03:46:04.061Z,29.92
2023-04-27T03:48:30.945Z,27.75
2023-04-27T03:50:58.113Z,26.02
2023-04-27T03:53:25.400Z,28.17
2023-04-27T03:55:52.548Z,26.08
2023-04-27T03:58:19.835Z,26.48
2023-04-27T04:01:07.024Z,29.10
2023-04-27T04:03:34.188Z,33.63
2023-04-27T04:06:03.622Z,31.50
2023-04-27T04:08:33.189Z,33.50
2023-04-27T04:11:01.027Z,30.52
2023-04-27T04:13:29.072Z,30.13
2023-04-27T04:16:07.127Z,30.55
2023-04-27T04:18:35.131Z,29.08
2023-04-27T04:21:03.039Z,29.77
2023-04-27T04:23:30.122Z,30.50
2023-04-27T04:25:57.837Z,33.92
2023-04-27T04:28:28.564Z,29.90
2023-04-27T04:30:55.772Z,32.30
2023-04-27T04:33:22.902Z,31.73
2023-04-27T04:35:49.814Z,31.95
2023-04-27T04:38:16.903Z,31.40
2023-04-27T04:40:45.871Z,29.38
2023-04-27T04:43:13.485Z,27.98
2023-04-27T04:45:42.832Z,31.88
2023-04-27T04:48:11.670Z,30.88
2023-04-27T04:50:39.742Z,32.00
2023-04-27T04:53:06.661Z,28.58
2023-04-27T04:55:34.329Z,27.42
2023-04-27T04:58:02.009Z,29.20
2023-04-27T05:00:29.697Z,30.20
2023-04-27T05:02:56.810Z,27.20
2023-04-27T05:05:23.795Z,26.55
2023-04-27T05:07:50.698Z,24.33
2023-04-27T05:10:17.884Z,22.27
2023-04-27T05:12:44.803Z,24.77
2023-04-27T05:15:12.154Z,22.45
2023-04-27T05:17:39.062Z,19.67
2023-04-27T05:20:07.158Z,18.92
2023-04-27T05:22:34.031Z,20.20
2023-04-27T05:25:01.180Z,20.58
2023-04-27T05:27:28.031Z,20.42
2023-04-27T05:29:54.990Z,18.80
2023-04-27T05:32:21.867Z,20.92
2023-04-27T05:34:49.604Z,18.88
2023-04-27T05:37:16.774Z,20.08
2023-04-27T05:39:43.689Z,17.40
2023-04-27T05:42:10.556Z,19.45
2023-04-27T05:44:37.738Z,18.85
2023-04-27T05:47:04.699Z,20.85
2023-04-27T05:49:31.711Z,16.98
2023-04-27T05:51:59.162Z,14.38
2023-04-27T05:54:27.625Z,17.33
2023-04-27T05:56:54.542Z,19.33
2023-04-27T05:59:21.952Z,22.98
2023-04-27T06:01:49.128Z,18.92
2023-04-27T06:04:16.271Z,17.80
2023-04-27T06:06:44.811Z,16.92
2023-04-27T06:09:12.055Z,19.50
2023-04-27T06:11:39.108Z,17.27
2023-04-27T06:14:06.022Z,18.92
2023-04-27T06:16:33.058Z,21.88
2023-04-27T06:19:00.159Z,17.23
2023-04-27T06:21:27.112Z,18.30
2023-04-27T06:23:54.080Z,19.67
2023-04-27T06:26:21.042Z,26.08
2023-04-27T06:28:48.020Z,25.30
2023-04-27T06:31:15.216Z,30.65
2023-04-27T06:33:42.238Z,31.88
2023-04-27T06:36:09.251Z,30.05
2023-04-27T06:38:36.165Z,29.63
2023-04-27T06:41:03.318Z,29.30
2023-04-27T06:43:31.056Z,32.33
2023-04-27T06:45:57.949Z,29.52
2023-04-27T06:48:24.981Z,36.33
2023-04-27T06:50:52.390Z,29.85
2023-04-27T06:53:19.454Z,34.28
2023-04-27T06:55:48.435Z,33.45
2023-04-27T06:58:15.663Z,29.25
2023-04-27T07:00:42.681Z,37.92
2023-04-27T07:03:09.873Z,41.05
2023-04-27T07:05:36.889Z,41.47
2023-04-27T07:08:07.740Z,41.58
2023-04-27T07:10:36.060Z,45.05
2023-04-27T07:13:03.008Z,39.78
2023-04-27T07:15:31.725Z,38.80
2023-04-27T07:17:58.711Z,33.22
2023-04-27T07:20:26.876Z,31.45
2023-04-27T07:22:53.861Z,33.45
2023-04-27T07:25:20.901Z,29.45
2023-04-27T07:27:47.991Z,29.05
2023-04-27T07:30:15.736Z,31.52
2023-04-27T07:32:43.026Z,33.00
2023-04-27T07:35:10.208Z,31.17
2023-04-27T07:37:38.292Z,29.95
2023-04-27T07:40:11.649Z,34.97
2023-04-27T07:42:40.173Z,35.10
2023-04-27T07:45:08.380Z,35.85
2023-04-27T07:47:35.951Z,35.80
2023-04-27T07:50:04.507Z,28.30
2023-04-27T07:52:31.534Z,34.67
2023-04-27T07:54:58.766Z,31.48
2023-04-27T07:57:25.731Z,38.70
2023-04-27T07:59:52.722Z,39.33
2023-04-27T08:02:20.497Z,33.55
2023-04-27T08:04:48.943Z,34.90
2023-04-27T08:07:17.657Z,36.00
2023-04-27T08:09:44.901Z,39.50
2023-04-27T08:12:12.051Z,39.05
2023-04-27T08:14:38.943Z,34.28
2023-04-27T08:17:06.315Z,31.73
2023-04-27T08:19:33.288Z,31.48
2023-04-27T08:22:00.818Z,32.00
2023-04-27T08:24:27.826Z,36.83
2023-04-27T08:26:54.827Z,31.58
2023-04-27T08:29:28.021Z,27.83
2023-04-27T08:31:59.188Z,31.33
2023-04-27T08:34:26.850Z,30.83
2023-04-27T08:36:57.104Z,37.80
2023-04-27T08:39:24.846Z,37.35
2023-04-27T08:41:51.792Z,35.50
2023-04-27T08:44:18.850Z,31.85
2023-04-27T08:46:45.871Z,31.92
2023-04-27T08:49:15.126Z,29.65
2023-04-27T08:51:43.873Z,30.67
2023-04-27T08:54:10.934Z,33.15
2023-04-27T08:56:39.353Z,31.80
2023-04-27T08:59:15.400Z,28.15
2023-04-27T09:01:48.759Z,30.30
2023-04-27T09:04:18.022Z,31.15
2023-04-27T09:06:45.503Z,30.17
2023-04-27T09:09:22.421Z,32.47
2023-04-27T09:11:49.975Z,26.55
2023-04-27T09:14:22.412Z,30.63
2023-04-27T09:17:00.134Z,28.08
2023-04-27T09:19:29.705Z,29.30
2023-04-27T09:22:07.975Z,28.58
2023-04-27T09:24:35.957Z,30.40
2023-04-27T09:27:03.285Z,34.55
2023-04-27T09:29:38.491Z,28.00
2023-04-27T09:32:20.628Z,29.05
2023-04-27T09:34:47.687Z,25.77
2023-04-27T09:37:14.910Z,23.15
2023-04-27T09:39:42.893Z,22.58
2023-04-27T09:42:11.526Z,21.90
2023-04-27T09:44:38.475Z,17.63
2023-04-27T09:47:06.449Z,17.17
2023-04-27T09:49:34.958Z,18.05
2023-04-27T09:52:01.876Z,19.85
2023-04-27T09:54:32.295Z,18.13
2023-04-27T09:57:38.719Z,18.42
2023-04-27T10:00:16.337Z,18.25
2023-04-27T10:02:58.944Z,15.70
2023-04-27T10:06:07.616Z,20.45
2023-04-27T10:08:35.948Z,17.65
2023-04-27T10:11:15.531Z,15.68
2023-04-27T10:13:54.433Z,20.98
2023-04-27T10:16:22.682Z,18.05
2023-04-27T10:18:56.255Z,16.00
2023-04-27T10:21:23.897Z,19.13
2023-04-27T10:23:52.218Z,14.95
2023-04-27T10:26:26.622Z,18.88
2023-04-27T10:29:07.231Z,15.57
2023-04-27T10:31:34.666Z,17.05
2023-04-27T10:34:11.913Z,19.17
2023-04-27T10:36:40.994Z,20.00
2023-04-27T10:39:27.605Z,18.13
2023-04-27T10:41:59.974Z,17.27
2023-04-27T10:44:31.537Z,18.63
2023-04-27T10:47:16.195Z,16.60
2023-04-27T10:49:43.480Z,18.58
2023-04-27T10:52:10.448Z,14.85
2023-04-27T10:54:39.604Z,15.85
2023-04-27T10:57:11.452Z,20.40
2023-04-27T10:59:52.884Z,19.15
2023-04-27T11:02:28.517Z,23.98
2023-04-27T11:04:56.741Z,18.08
2023-04-27T11:07:25.628Z,18.42
2023-04-27T11:09:53.163Z,18.90
2023-04-27T11:12:20.211Z,13.43
2023-04-27T11:14:47.861Z,14.82
2023-04-27T11:17:14.853Z,14.07
2023-04-27T11:19:47.110Z,15.32
2023-04-27T11:22:18.288Z,13.98
2023-04-27T11:24:52.558Z,12.95
2023-04-27T11:27:22.338Z,13.52
2023-04-27T11:29:49.436Z,16.48
2023-04-27T11:32:20.979Z,15.95
2023-04-27T11:34:56.627Z,14.63
2023-04-27T11:37:26.976Z,14.02
2023-04-27T11:39:54.940Z,15.32
2023-04-27T11:42:24.655Z,17.35
2023-04-27T11:44:57.359Z,16.13
2023-04-27T11:47:27.745Z,17.83
2023-04-27T11:49:57.578Z,13.43
2023-04-27T11:52:32.435Z,14.13
2023-04-27T11:55:01.155Z,16.08
2023-04-27T11:57:36.104Z,17.60
2023-04-27T12:00:11.189Z,17.35
2023-04-27T12:02:43.262Z,16.45
2023-04-27T12:05:12.563Z,17.05
2023-04-27T12:07:40.134Z,16.55
2023-04-27T12:10:08.055Z,15.38
2023-04-27T12:12:35.104Z,13.68
2023-04-27T12:15:02.616Z,12.35
2023-04-27T12:17:29.792Z,12.90
2023-04-27T12:19:56.866Z,15.90
2023-04-27T12:22:23.956Z,12.68
2023-04-27T12:24:51.358Z,16.05
2023-04-27T12:27:18.473Z,14.25
2023-04-27T12:29:45.365Z,17.92
2023-04-27T12:32:12.412Z,12.80
2023-04-27T12:34:39.791Z,12.45
2023-04-27T12:37:07.424Z,15.55
2023-04-27T12:39:34.772Z,13.90
2023-04-27T12:42:02.389Z,20.25
2023-04-27T12:44:29.339Z,12.48
2023-04-27T12:46:56.570Z,12.75
2023-04-27T12:49:23.585Z,14.98
2023-04-27T12:51:52.049Z,12.68
2023-04-27T12:54:19.034Z,16.23
2023-04-27T12:56:47.158Z,15.10
2023-04-27T12:59:14.232Z,16.90
2023-04-27T13:01:41.333Z,11.77
2023-04-27T13:04:09.196Z,16.73
2023-04-27T13:06:36.326Z,15.45
2023-04-27T13:09:03.413Z,13.75
2023-04-27T13:11:30.615Z,13.32
2023-04-27T13:13:57.571Z,18.23
2023-04-27T13:16:25.755Z,11.25
2023-04-27T13:18:53.597Z,14.00
2023-04-27T13:21:21.049Z,12.82
2023-04-27T13:23:48.309Z,13.15
2023-04-27T13:26:15.952Z,16.60
2023-04-27T13:28:43.128Z,13.55
2023-04-27T13:31:10.980Z,14.32
2023-04-27T13:33:43.098Z,14.70
2023-04-27T13:36:11.172Z,16.08
2023-04-27T13:38:38.339Z,13.32
2023-04-27T13:41:06.351Z,12.40
2023-04-27T13:43:33.335Z,16.40
2023-04-27T13:46:02.886Z,16.92
2023-04-27T13:48:30.902Z,13.82
2023-04-27T13:50:58.316Z,15.40
2023-04-27T13:53:25.963Z,13.25
2023-04-27T13:55:57.551Z,16.35
2023-04-27T13:58:26.193Z,13.27
2023-04-27T14:00:54.020Z,21.88
2023-04-27T14:03:23.005Z,14.93
2023-04-27T14:05:51.749Z,17.45
2023-04-27T14:08:18.908Z,12.60
2023-04-27T14:10:46.330Z,18.17
2023-04-27T14:13:13.664Z,13.98
2023-04-27T14:15:41.370Z,14.23
2023-04-27T14:18:09.467Z,12.20
2023-04-27T14:20:37.668Z,15.15
2023-04-27T14:23:06.218Z,13.57
2023-04-27T14:25:34.986Z,15.18
2023-04-27T14:28:04.178Z,16.13
2023-04-27T14:30:35.015Z,16.52
2023-04-27T14:33:02.754Z,16.27
2023-04-27T14:35:29.927Z,15.27
2023-04-27T14:38:02.074Z,13.60
2023-04-27T14:40:30.153Z,15.52
2023-04-27T14:42:58.386Z,15.77
2023-04-27T14:45:27.570Z,15.15
2023-04-27T14:48:01.012Z,19.50
2023-04-27T14:50:28.467Z,18.60
2023-04-27T14:52:58.740Z,15.68
2023-04-27T14:55:26.009Z,13.90
2023-04-27T14:57:53.206Z,20.00
2023-04-27T15:00:20.464Z,13.00
2023-04-27T15:02:47.376Z,12.88
2023-04-27T15:05:14.564Z,15.48
2023-04-27T15:07:41.640Z,13.27
2023-04-27T15:10:09.182Z,16.88
2023-04-27T15:12:36.109Z,16.75
2023-04-27T15:15:03.786Z,12.93
2023-04-27T15:17:30.794Z,12.82
2023-04-27T15:19:58.250Z,19.23
2023-04-27T15:22:25.203Z,15.73
2023-04-27T15:24:53.268Z,15.02
2023-04-27T15:27:20.227Z,14.52
2023-04-27T15:29:47.217Z,12.82
2023-04-27T15:32:14.732Z,13.88
2023-04-27T15:34:46.100Z,16.30
2023-04-27T15:37:14.072Z,14.82
2023-04-27T15:39:42.017Z,17.17
2023-04-27T15:42:09.053Z,14.00
2023-04-27T15:44:36.455Z,15.73
2023-04-27T15:47:03.486Z,18.38
2023-04-27T15:49:30.699Z,17.23
2023-04-27T15:51:57.739Z,16.25
2023-04-27T15:54:24.752Z,13.93
2023-04-27T15:56:52.104Z,16.10
2023-04-27T15:59:19.153Z,14.48
2023-04-27T16:01:46.174Z,17.63
2023-04-27T16:04:13.282Z,17.85
2023-04-27T16:06:40.465Z,17.13
2023-04-27T16:09:10.448Z,17.10
2023-04-27T16:11:38.065Z,18.00
2023-04-27T16:14:04.974Z,14.95
2023-04-27T16:16:32.379Z,15.52
2023-04-27T16:18:59.573Z,15.98
2023-04-27T16:21:28.107Z,15.25
2023-04-27T16:23:55.071Z,17.65
2023-04-27T16:26:22.018Z,13.45
2023-04-27T16:28:48.920Z,18.23
2023-04-27T16:31:16.270Z,15.43
2023-04-27T16:33:43.209Z,15.73
2023-04-27T16:36:10.954Z,14.15
2023-04-27T16:38:39.431Z,15.75
2023-04-27T16:41:06.550Z,15.02
2023-04-27T16:43:33.960Z,18.98
2023-04-27T16:46:01.393Z,20.35
2023-04-27T16:48:28.453Z,18.13
2023-04-27T16:50:55.879Z,18.88
2023-04-27T16:53:22.869Z,15.00
2023-04-27T16:55:50.013Z,16.00
2023-04-27T16:58:16.907Z,14.55
2023-04-27T17:00:44.030Z,14.93
2023-04-27T17:03:11.316Z,18.30
2023-04-27T17:05:38.380Z,16.67
2023-04-27T17:08:06.349Z,14.77
2023-04-27T17:10:33.517Z,16.80
2023-04-27T17:13:00.459Z,18.60
2023-04-27T17:15:28.748Z,19.20
2023-04-27T17:17:56.300Z,16.83
2023-04-27T17:20:23.376Z,14.57
2023-04-27T17:22:50.405Z,15.82
2023-04-27T17:25:17.725Z,16.13
2023-04-27T17:27:44.748Z,14.27
2023-04-27T17:30:12.191Z,15.98
2023-04-27T17:32:39.133Z,17.20
2023-04-27T17:35:06.481Z,14.77
2023-04-27T17:37:33.434Z,18.02
2023-04-27T17:40:00.427Z,15.60
2023-04-27T17:42:27.410Z,16.58
2023-04-27T17:44:54.462Z,16.48
2023-04-27T17:47:25.484Z,15.25
2023-04-27T17:49:52.730Z,13.10
2023-04-27T17:52:19.642Z,19.00
2023-04-27T17:54:46.857Z,18.52
2023-04-27T17:57:13.723Z,15.45
2023-04-27T17:59:40.850Z,16.27
2023-04-27T18:02:07.823Z,16.20
2023-04-27T18:04:35.056Z,15.27
2023-04-27T18:07:01.991Z,14.50
2023-04-27T18:09:30.741Z,16.70
2023-04-27T18:11:59.795Z,15.77
2023-04-27T18:14:26.784Z,17.70
2023-04-27T18:16:53.942Z,20.55
2023-04-27T18:19:21.038Z,17.30
2023-04-27T18:21:48.042Z,17.30
2023-04-27T18:24:14.900Z,15.98
2023-04-27T18:26:41.829Z,14.80
2023-04-27T18:29:08.709Z,14.98
2023-04-27T18:31:36.414Z,15.95
2023-04-27T18:34:03.451Z,16.08
2023-04-27T18:36:31.414Z,18.60
2023-04-27T18:38:58.673Z,14.45
2023-04-27T18:41:25.997Z,15.30
2023-04-27T18:43:53.298Z,15.55
2023-04-27T18:46:21.043Z,17.38
2023-04-27T18:48:48.043Z,15.75
2023-04-27T18:51:15.040Z,19.40
2023-04-27T18:53:41.991Z,16.95
2023-04-27T18:56:10.193Z,16.55
2023-04-27T18:58:37.054Z,17.13
2023-04-27T19:01:04.125Z,12.68
2023-04-27T19:03:31.208Z,18.98
2023-04-27T19:05:58.806Z,14.70
2023-04-27T19:08:25.793Z,14.77
2023-04-27T19:10:52.742Z,18.10
2023-04-27T19:13:19.659Z,13.25
2023-04-27T19:15:46.651Z,13.50
2023-04-27T19:18:13.539Z,14.95
2023-04-27T19:20:40.774Z,14.13
2023-04-27T19:23:09.699Z,14.32
2023-04-27T19:25:36.953Z,18.25
2023-04-27T19:28:04.806Z,16.05
2023-04-27T19:30:32.240Z,13.63
2023-04-27T19:32:59.176Z,16.00
2023-04-27T19:35:27.535Z,15.63
2023-04-27T19:37:54.549Z,15.45
2023-04-27T19:40:21.546Z,15.40
2023-04-27T19:42:48.442Z,16.42
2023-04-27T19:45:16.958Z,15.52
2023-04-27T19:47:44.182Z,16.23
2023-04-27T19:50:11.776Z,17.73
2023-04-27T19:52:38.700Z,19.90
2023-04-27T19:55:06.249Z,17.42
2023-04-27T19:57:33.327Z,14.98
2023-04-27T20:00:00.498Z,17.15
2023-04-27T20:02:27.559Z,21.15
2023-04-27T20:04:54.811Z,15.15
2023-04-27T20:07:22.255Z,21.92
2023-04-27T20:09:49.190Z,18.33
2023-04-27T20:12:37.186Z,15.45
2023-04-27T20:15:05.422Z,14.80
2023-04-27T20:17:32.393Z,17.38
2023-04-27T20:19:59.387Z,19.25
2023-04-27T20:22:27.496Z,19.52
2023-04-27T20:24:59.009Z,18.38
2023-04-27T20:27:26.022Z,18.13
2023-04-27T20:29:52.984Z,24.20
2023-04-27T20:32:19.928Z,18.52
2023-04-27T20:34:46.847Z,21.65
2023-04-27T20:37:13.867Z,20.65
2023-04-27T20:39:41.525Z,19.25
2023-04-27T20:42:08.544Z,21.98
2023-04-27T20:44:35.942Z,20.05
2023-04-27T20:47:02.904Z,22.83
2023-04-27T20:49:35.095Z,22.63
2023-04-27T20:52:03.095Z,24.50
2023-04-27T20:54:33.030Z,21.65
2023-04-27T20:57:02.977Z,22.45
2023-04-27T20:59:30.017Z,22.85
2023-04-27T21:01:57.034Z,19.58
2023-04-27T21:04:24.249Z,23.58
2023-04-27T21:06:51.252Z,23.33
2023-04-27T21:09:18.333Z,24.30
2023-04-27T21:11:45.245Z,23.92
2023-04-27T21:14:12.251Z,22.00
2023-04-27T21:16:39.260Z,27.42
2023-04-27T21:19:08.867Z,26.02
2023-04-27T21:21:35.794Z,26.23
2023-04-27T21:24:07.870Z,31.23
2023-04-27T21:26:35.750Z,23.48
2023-04-27T21:29:05.352Z,24.63
2023-04-27T21:31:33.392Z,25.45
2023-04-27T21:34:00.900Z,26.90
2023-04-27T21:36:28.113Z,27.27
2023-04-27T21:38:55.161Z,26.13
2023-04-27T21:41:22.203Z,26.15
2023-04-27T21:43:49.166Z,27.60
2023-04-27T21:46:16.175Z,26.08
2023-04-27T21:48:43.111Z,29.38
2023-04-27T21:51:10.057Z,23.70
2023-04-27T21:53:37.014Z,29.83
2023-04-27T21:56:04.207Z,27.23
2023-04-27T21:58:31.227Z,27.38
2023-04-27T22:00:58.554Z,28.70
2023-04-27T22:03:25.982Z,27.65
2023-04-27T22:05:54.067Z,26.15
2023-04-27T22:08:21.767Z,30.30
2023-04-27T22:10:48.866Z,31.63
2023-04-27T22:13:19.156Z,25.02
2023-04-27T22:15:47.260Z,26.90
2023-04-27T22:18:15.731Z,24.42
2023-04-27T22:20:43.482Z,27.95
2023-04-27T22:23:10.812Z,28.02
2023-04-27T22:25:38.010Z,24.67
2023-04-27T22:28:05.238Z,29.17
2023-04-27T22:30:32.423Z,26.27
2023-04-27T22:32:59.515Z,21.73
2023-04-27T22:35:27.859Z,29.42
2023-04-27T22:37:56.052Z,25.10
2023-04-27T22:40:23.361Z,24.65
2023-04-27T22:42:50.829Z,25.33
2023-04-27T22:45:17.923Z,27.75
2023-04-27T22:47:46.107Z,28.90
2023-04-27T22:50:13.805Z,27.42
2023-04-27T22:52:44.006Z,21.13
2023-04-27T22:55:12.063Z,28.15
2023-04-27T22:57:39.926Z,23.27
2023-04-27T23:00:11.460Z,26.27
2023-04-27T23:02:40.436Z,28.98
2023-04-27T23:05:08.029Z,26.27
2023-04-27T23:07:36.062Z,25.63
2023-04-27T23:10:03.580Z,23.33
2023-04-27T23:12:31.410Z,27.70
2023-04-27T23:14:59.118Z,24.88
2023-04-27T23:17:30.585Z,27.58
2023-04-27T23:19:59.303Z,25.30
2023-04-27T23:22:27.238Z,24.92
2023-04-27T23:24:54.624Z,31.17
2023-04-27T23:27:22.663Z,27.90
2023-04-27T23:29:49.623Z,30.83
2023-04-27T23:32:17.086Z,32.60
2023-04-27T23:34:44.065Z,33.35
2023-04-27T23:37:11.204Z,31.33
2023-04-27T23:39:38.375Z,27.52
2023-04-27T23:42:05.468Z,26.90
2023-04-27T23:44:32.596Z,31.85
2023-04-27T23:46:59.680Z,28.10
2023-04-27T23:49:26.637Z,30.88
2023-04-27T23:51:53.738Z,28.38
2023-04-27T23:54:20.813Z,33.15
2023-04-27T23:56:47.685Z,33.22
2023-04-27T23:59:15.220Z,34.85
